createdAt,value
2018-09-23T00:01:46.173Z,3.13
2018-09-23T00:07:13.273Z,4.30
2018-09-23T00:09:42.445Z,4.30
2018-09-23T00:12:11.764Z,4.53
2018-09-23T00:14:40.854Z,4.53
2018-09-23T00:17:10.160Z,5.27
2018-09-23T00:19:39.195Z,3.13
2018-09-23T00:22:08.293Z,4.10
2018-09-23T00:24:37.460Z,5.23
2018-09-23T00:27:06.580Z,5.57
2018-09-23T00:29:40.927Z,5.13
2018-09-23T00:32:09.992Z,6.17
2018-09-23T00:34:39.087Z,5.83
2018-09-23T00:37:08.560Z,7.77
2018-09-23T00:39:37.630Z,8.33
2018-09-23T00:42:06.940Z,7.37
2018-09-23T00:44:36.147Z,8.20
2018-09-23T00:47:05.325Z,5.87
2018-09-23T00:49:34.614Z,6.33
2018-09-23T00:52:03.913Z,8.80
2018-09-23T00:54:33.165Z,8.67
2018-09-23T00:57:02.281Z,8.40
2018-09-23T00:59:31.358Z,9.30
2018-09-23T01:02:00.507Z,6.17
2018-09-23T01:04:29.742Z,9.17
2018-09-23T01:06:58.873Z,8.57
2018-09-23T01:09:27.958Z,8.83
2018-09-23T01:11:57.208Z,6.93
2018-09-23T01:14:26.272Z,9.07
2018-09-23T01:16:55.366Z,10.83
2018-09-23T01:19:24.573Z,10.10
2018-09-23T01:21:53.730Z,9.10
2018-09-23T01:24:22.806Z,9.40
2018-09-23T01:26:52.006Z,8.77
2018-09-23T01:29:21.066Z,8.87
2018-09-23T01:31:50.509Z,10.00
2018-09-23T01:34:19.590Z,6.00
2018-09-23T01:36:48.633Z,8.50
2018-09-23T01:39:17.734Z,7.03
2018-09-23T01:41:46.895Z,8.43
2018-09-23T01:44:15.932Z,8.10
2018-09-23T01:46:45.054Z,9.87
2018-09-23T01:49:14.113Z,10.03
2018-09-23T01:51:43.180Z,8.13
2018-09-23T01:54:12.456Z,9.67
2018-09-23T01:56:41.995Z,12.70
2018-09-23T01:59:11.143Z,11.13
2018-09-23T02:01:40.344Z,13.50
2018-09-23T02:04:09.453Z,10.60
2018-09-23T02:06:38.563Z,12.83
2018-09-23T02:09:08.604Z,11.40
2018-09-23T02:11:37.893Z,10.50
2018-09-23T02:14:07.090Z,9.97
2018-09-23T02:16:36.261Z,13.57
2018-09-23T02:19:05.993Z,12.73
2018-09-23T02:21:35.309Z,12.50
2018-09-23T02:24:04.753Z,8.47
2018-09-23T02:26:33.825Z,13.13
2018-09-23T02:29:03.132Z,13.73
2018-09-23T02:31:32.317Z,12.50
2018-09-23T02:34:01.688Z,9.73
2018-09-23T02:36:30.715Z,10.50
2018-09-23T02:38:59.861Z,13.37
2018-09-23T02:41:28.914Z,7.13
2018-09-23T02:43:58.164Z,12.53
2018-09-23T02:46:27.300Z,9.70
2018-09-23T02:48:56.428Z,14.27
2018-09-23T02:51:25.686Z,12.73
2018-09-23T02:53:54.975Z,13.37
2018-09-23T02:56:24.337Z,14.07
2018-09-23T02:58:53.603Z,13.67
2018-09-23T03:01:22.993Z,11.73
2018-09-23T03:03:52.160Z,13.33
2018-09-23T03:06:21.286Z,14.27
2018-09-23T03:08:50.472Z,16.10
2018-09-23T03:11:19.911Z,12.13
2018-09-23T03:13:49.116Z,16.13
2018-09-23T03:16:21.858Z,16.60
2018-09-23T03:18:51.476Z,13.20
2018-09-23T03:21:20.607Z,15.60
2018-09-23T03:23:49.797Z,14.60
2018-09-23T03:26:19.003Z,15.97
2018-09-23T03:28:48.132Z,16.63
2018-09-23T03:31:17.365Z,15.53
2018-09-23T03:33:46.802Z,17.73
2018-09-23T03:36:16.105Z,15.03
2018-09-23T03:38:45.475Z,16.67
2018-09-23T03:41:14.618Z,17.13
2018-09-23T03:43:44.340Z,16.57
2018-09-23T03:46:13.385Z,18.80
2018-09-23T03:48:42.547Z,19.67
2018-09-23T03:51:11.833Z,18.90
2018-09-23T03:53:40.950Z,20.33
2018-09-23T03:56:10.020Z,15.97
2018-09-23T03:58:39.101Z,16.97
2018-09-23T04:01:08.307Z,19.30
2018-09-23T04:03:37.590Z,20.40
2018-09-23T04:06:06.843Z,18.93
2018-09-23T04:08:36.025Z,21.43
2018-09-23T04:11:05.362Z,18.77
2018-09-23T04:13:34.711Z,20.90
2018-09-23T04:16:03.937Z,14.93
2018-09-23T04:18:33.269Z,18.80
2018-09-23T04:21:02.311Z,20.33
2018-09-23T04:23:31.408Z,18.77
2018-09-23T04:26:00.672Z,20.07
2018-09-23T04:28:29.746Z,19.53
2018-09-23T04:30:59.015Z,19.63
2018-09-23T04:33:28.271Z,16.07
2018-09-23T04:35:57.496Z,18.40
2018-09-23T04:38:26.657Z,16.70
2018-09-23T04:40:55.949Z,18.77
2018-09-23T04:43:25.127Z,18.50
2018-09-23T04:45:54.435Z,17.97
2018-09-23T04:48:23.656Z,19.23
2018-09-23T04:50:53.055Z,18.17
2018-09-23T04:53:22.400Z,20.20
2018-09-23T04:55:51.671Z,21.77
2018-09-23T04:58:20.896Z,19.17
2018-09-23T05:00:50.109Z,21.57
2018-09-23T05:03:19.412Z,21.80
2018-09-23T05:05:48.599Z,22.77
2018-09-23T05:08:17.728Z,17.60
2018-09-23T05:10:46.910Z,23.47
2018-09-23T05:13:16.053Z,19.70
2018-09-23T05:15:45.353Z,19.60
2018-09-23T05:18:14.817Z,19.97
2018-09-23T05:20:43.995Z,25.97
2018-09-23T05:23:13.214Z,24.17
2018-09-23T05:25:42.400Z,22.90
2018-09-23T05:28:11.720Z,24.67
2018-09-23T05:30:40.776Z,23.83
2018-09-23T05:33:10.077Z,20.73
2018-09-23T05:35:39.214Z,22.27
2018-09-23T05:38:08.297Z,23.77
2018-09-23T05:40:37.479Z,22.53
2018-09-23T05:43:07.151Z,23.10
2018-09-23T05:45:36.295Z,22.10
2018-09-23T05:48:06.834Z,21.77
2018-09-23T05:50:36.390Z,24.20
2018-09-23T05:53:05.819Z,23.07
2018-09-23T05:55:35.045Z,19.57
2018-09-23T05:58:04.893Z,22.77
2018-09-23T06:00:38.815Z,25.40
2018-09-23T06:03:07.918Z,23.17
2018-09-23T06:05:37.028Z,22.27
2018-09-23T06:08:06.143Z,22.63
2018-09-23T06:10:35.442Z,21.37
2018-09-23T06:13:04.674Z,23.03
2018-09-23T06:15:33.825Z,21.93
2018-09-23T06:18:02.879Z,22.57
2018-09-23T06:20:31.954Z,20.90
2018-09-23T06:23:01.266Z,23.17
2018-09-23T06:25:30.552Z,22.57
2018-09-23T06:27:59.679Z,20.27
2018-09-23T06:30:28.816Z,21.43
2018-09-23T06:32:58.026Z,22.17
2018-09-23T06:35:27.112Z,18.00
2018-09-23T06:37:56.364Z,20.17
2018-09-23T06:40:25.704Z,19.03
2018-09-23T06:42:54.745Z,20.77
2018-09-23T06:45:23.980Z,21.93
2018-09-23T06:47:53.154Z,21.37
2018-09-23T06:50:22.374Z,20.90
2018-09-23T06:52:51.516Z,19.93
2018-09-23T06:55:20.708Z,18.97
2018-09-23T06:57:49.857Z,19.00
2018-09-23T07:00:19.135Z,19.23
2018-09-23T07:02:48.384Z,19.63
2018-09-23T07:05:17.485Z,21.00
2018-09-23T07:07:47.400Z,20.83
2018-09-23T07:10:16.541Z,17.00
2018-09-23T07:12:45.685Z,19.10
2018-09-23T07:15:15.627Z,17.97
2018-09-23T07:17:44.952Z,17.30
2018-09-23T07:20:14.155Z,17.63
2018-09-23T07:22:43.691Z,17.20
2018-09-23T07:25:13.040Z,16.43
2018-09-23T07:27:42.313Z,16.87
2018-09-23T07:30:11.458Z,16.17
2018-09-23T07:32:40.602Z,15.03
2018-09-23T07:35:09.791Z,16.47
2018-09-23T07:37:38.976Z,14.33
2018-09-23T07:40:08.159Z,14.63
2018-09-23T07:42:37.468Z,13.57
2018-09-23T07:45:06.836Z,14.17
2018-09-23T07:47:35.940Z,13.07
2018-09-23T07:50:05.076Z,13.63
2018-09-23T07:52:34.176Z,14.03
2018-09-23T07:55:03.359Z,11.63
2018-09-23T07:57:32.547Z,13.03
2018-09-23T08:00:01.760Z,14.00
2018-09-23T08:02:31.148Z,13.27
2018-09-23T08:05:00.384Z,13.90
2018-09-23T08:07:29.470Z,13.13
2018-09-23T08:09:58.728Z,12.53
2018-09-23T08:12:27.987Z,12.53
2018-09-23T08:14:57.569Z,14.10
2018-09-23T08:17:26.533Z,13.77
2018-09-23T08:19:55.815Z,14.53
2018-09-23T08:22:24.880Z,14.90
2018-09-23T08:24:53.960Z,15.23
2018-09-23T08:27:23.112Z,12.83
2018-09-23T08:29:52.291Z,13.03
2018-09-23T08:32:21.390Z,14.50
2018-09-23T08:34:53.732Z,13.53
2018-09-23T08:37:23.068Z,12.97
2018-09-23T08:39:52.242Z,13.87
2018-09-23T08:42:21.502Z,13.53
2018-09-23T08:44:50.807Z,13.83
2018-09-23T08:47:19.864Z,14.63
2018-09-23T08:49:49.083Z,14.17
2018-09-23T08:52:18.400Z,13.30
2018-09-23T08:54:47.832Z,15.10
2018-09-23T08:57:17.099Z,13.57
2018-09-23T08:59:46.140Z,13.33
2018-09-23T09:02:15.311Z,14.47
2018-09-23T09:04:44.478Z,13.30
2018-09-23T09:07:13.790Z,12.80
2018-09-23T09:09:42.848Z,13.70
2018-09-23T09:12:12.056Z,13.37
2018-09-23T09:14:41.218Z,11.77
2018-09-23T09:17:10.273Z,12.67
2018-09-23T09:19:39.364Z,13.53
2018-09-23T09:22:09.141Z,12.77
2018-09-23T09:24:38.373Z,11.47
2018-09-23T09:27:07.579Z,11.43
2018-09-23T09:29:36.632Z,11.00
2018-09-23T09:32:05.787Z,10.53
2018-09-23T09:34:34.987Z,11.07
2018-09-23T09:37:04.873Z,8.37
2018-09-23T09:39:34.191Z,8.10
2018-09-23T09:42:03.369Z,7.57
2018-09-23T09:44:32.546Z,8.70
2018-09-23T09:47:01.886Z,8.77
2018-09-23T09:49:31.017Z,9.30
2018-09-23T09:52:00.276Z,7.70
2018-09-23T09:54:29.482Z,7.57
2018-09-23T09:56:58.543Z,7.97
2018-09-23T09:59:27.801Z,8.93
2018-09-23T10:01:57.081Z,9.03
2018-09-23T10:04:26.246Z,8.47
2018-09-23T10:06:55.349Z,8.63
2018-09-23T10:09:24.488Z,9.33
2018-09-23T10:11:53.512Z,8.10
2018-09-23T10:14:22.763Z,7.53
2018-09-23T10:16:51.953Z,7.10
2018-09-23T10:19:21.049Z,7.03
2018-09-23T10:21:50.365Z,6.83
2018-09-23T10:24:19.506Z,6.83
2018-09-23T10:26:48.571Z,7.30
2018-09-23T10:29:17.746Z,7.60
2018-09-23T10:31:47.036Z,7.97
2018-09-23T10:34:17.092Z,6.93
2018-09-23T10:36:46.773Z,7.87
2018-09-23T10:39:16.175Z,7.57
2018-09-23T10:41:48.871Z,6.20
2018-09-23T10:44:18.213Z,6.47
2018-09-23T10:46:47.438Z,5.87
2018-09-23T10:49:16.477Z,6.30
2018-09-23T10:54:11.742Z,5.93
2018-09-23T10:56:40.910Z,5.60
2018-09-23T10:59:10.684Z,5.80
2018-09-23T11:01:39.839Z,5.10
2018-09-23T11:04:09.105Z,4.33
2018-09-23T11:06:38.523Z,4.63
2018-09-23T11:09:08.170Z,4.50
2018-09-23T11:11:37.331Z,5.40
2018-09-23T11:14:06.598Z,6.50
2018-09-23T11:16:35.662Z,5.27
2018-09-23T11:19:04.840Z,4.93
2018-09-23T11:21:33.974Z,5.40
2018-09-23T11:24:03.360Z,5.77
2018-09-23T11:26:32.711Z,5.67
2018-09-23T11:29:02.057Z,6.10
2018-09-23T11:31:31.184Z,5.33
2018-09-23T11:34:00.377Z,5.63
2018-09-23T11:36:29.677Z,5.43
2018-09-23T11:38:58.766Z,6.23
2018-09-23T11:41:28.274Z,6.30
2018-09-23T11:43:58.482Z,6.43
2018-09-23T11:46:27.675Z,6.13
2018-09-23T11:48:56.836Z,6.00
2018-09-23T11:51:25.886Z,6.80
2018-09-23T11:53:55.097Z,5.97
2018-09-23T11:56:25.308Z,5.83
2018-09-23T11:58:55.720Z,5.43
2018-09-23T12:01:25.528Z,5.90
2018-09-23T12:03:54.886Z,5.73
2018-09-23T12:06:24.108Z,5.57
2018-09-23T12:08:53.267Z,5.77
2018-09-23T12:11:23.306Z,5.30
2018-09-23T12:13:52.415Z,5.87
2018-09-23T12:16:21.590Z,5.70
2018-09-23T12:18:50.724Z,5.60
2018-09-23T12:21:19.840Z,5.50
2018-09-23T12:23:49.113Z,5.27
2018-09-23T12:26:18.328Z,5.27
2018-09-23T12:28:47.699Z,4.73
2018-09-23T12:31:17.681Z,4.87
2018-09-23T12:33:46.909Z,4.77
2018-09-23T12:36:16.050Z,4.40
2018-09-23T12:38:45.196Z,4.77
2018-09-23T12:41:14.556Z,4.83
2018-09-23T12:43:43.918Z,4.87
2018-09-23T12:46:13.223Z,4.97
2018-09-23T12:48:44.679Z,5.07
2018-09-23T12:51:13.989Z,6.10
2018-09-23T12:53:43.190Z,4.83
2018-09-23T12:56:12.542Z,4.43
2018-09-23T12:58:41.822Z,4.43
2018-09-23T13:01:11.200Z,2.30
2018-09-23T13:03:40.298Z,1.77
2018-09-23T13:06:09.442Z,1.67
2018-09-23T13:08:38.718Z,2.10
2018-09-23T13:11:07.977Z,1.87
2018-09-23T13:13:37.278Z,2.37
2018-09-23T13:16:06.377Z,2.33
2018-09-23T13:18:35.614Z,1.83
2018-09-23T13:21:04.953Z,1.43
2018-09-23T13:23:34.104Z,1.57
2018-09-23T13:26:03.359Z,2.20
2018-09-23T13:28:32.590Z,1.70
2018-09-23T13:31:01.683Z,1.57
2018-09-23T13:33:30.984Z,1.30
2018-09-23T13:36:00.078Z,1.80
2018-09-23T13:38:30.080Z,1.70
2018-09-23T13:40:59.390Z,1.50
2018-09-23T13:43:28.535Z,2.03
2018-09-23T13:45:57.665Z,1.90
2018-09-23T13:48:26.857Z,2.07
2018-09-23T13:50:56.032Z,1.83
2018-09-23T13:53:25.166Z,1.47
2018-09-23T13:55:54.209Z,1.57
2018-09-23T13:58:23.452Z,1.80
2018-09-23T14:00:52.540Z,1.70
2018-09-23T14:03:21.783Z,1.40
2018-09-23T14:05:50.953Z,1.23
2018-09-23T14:08:20.074Z,1.43
2018-09-23T14:10:49.292Z,1.40
2018-09-23T14:13:18.522Z,1.47
2018-09-23T14:15:47.598Z,1.60
2018-09-23T14:18:16.773Z,1.70
2018-09-23T14:20:46.081Z,1.37
2018-09-23T14:23:15.266Z,1.70
2018-09-23T14:25:44.320Z,1.40
2018-09-23T14:28:13.829Z,1.57
2018-09-23T14:30:42.987Z,1.53
2018-09-23T14:33:15.401Z,2.17
2018-09-23T14:35:44.736Z,1.70
2018-09-23T14:38:13.962Z,1.60
2018-09-23T14:40:43.146Z,1.60
2018-09-23T14:43:12.478Z,1.50
2018-09-23T14:45:41.781Z,1.47
2018-09-23T14:48:11.053Z,1.33
2018-09-23T14:50:40.354Z,1.63
2018-09-23T14:53:09.607Z,1.77
2018-09-23T14:55:38.748Z,1.43
2018-09-23T14:58:08.457Z,1.47
2018-09-23T15:00:37.647Z,1.37
2018-09-23T15:03:06.991Z,1.60
2018-09-23T15:05:36.120Z,2.00
2018-09-23T15:08:05.988Z,2.10
2018-09-23T15:10:35.355Z,1.60
2018-09-23T15:13:04.886Z,2.07
2018-09-23T15:15:34.078Z,1.83
2018-09-23T15:18:03.453Z,2.27
2018-09-23T15:20:32.679Z,2.70
2018-09-23T15:23:01.758Z,2.47
2018-09-23T15:25:31.008Z,1.70
2018-09-23T15:28:00.721Z,1.83
2018-09-23T15:30:30.312Z,2.10
2018-09-23T15:32:59.466Z,2.03
2018-09-23T15:35:28.526Z,1.90
2018-09-23T15:37:57.810Z,1.87
2018-09-23T15:40:26.856Z,2.60
2018-09-23T15:42:56.252Z,2.17
2018-09-23T15:45:25.363Z,2.00
2018-09-23T15:47:54.574Z,2.43
2018-09-23T15:50:23.685Z,1.53
2018-09-23T15:52:53.000Z,1.90
2018-09-23T15:55:23.051Z,2.17
2018-09-23T15:57:52.326Z,2.47
2018-09-23T16:00:22.437Z,2.33
2018-09-23T16:02:52.312Z,2.20
2018-09-23T16:05:21.661Z,2.20
2018-09-23T16:07:50.979Z,1.80
2018-09-23T16:10:20.018Z,2.67
2018-09-23T16:12:49.169Z,2.13
2018-09-23T16:15:18.308Z,2.63
2018-09-23T16:17:47.503Z,2.33
2018-09-23T16:20:16.657Z,1.93
2018-09-23T16:22:45.763Z,2.30
2018-09-23T16:25:14.865Z,2.10
2018-09-23T16:27:43.946Z,1.60
2018-09-23T16:30:13.023Z,2.30
2018-09-23T16:32:42.200Z,2.23
2018-09-23T16:35:11.389Z,2.10
2018-09-23T16:37:40.697Z,2.20
2018-09-23T16:40:09.797Z,2.20
2018-09-23T16:42:38.864Z,2.27
2018-09-23T16:45:08.168Z,2.00
2018-09-23T16:47:37.272Z,1.70
2018-09-23T16:50:06.471Z,2.07
2018-09-23T16:52:35.613Z,2.17
2018-09-23T16:55:04.774Z,1.67
2018-09-23T16:57:34.088Z,1.30
2018-09-23T17:00:03.176Z,2.10
2018-09-23T17:02:32.648Z,2.17
2018-09-23T17:05:03.672Z,2.00
2018-09-23T17:07:33.278Z,1.23
2018-09-23T17:10:02.697Z,2.03
2018-09-23T17:12:31.856Z,1.57
2018-09-23T17:15:00.970Z,1.90
2018-09-23T17:17:30.292Z,1.80
2018-09-23T17:20:00.132Z,1.80
2018-09-23T17:22:29.171Z,2.27
2018-09-23T17:24:58.387Z,1.77
2018-09-23T17:30:28.665Z,2.13
2018-09-23T17:32:57.782Z,2.17
2018-09-23T17:35:26.977Z,3.23
2018-09-23T17:37:56.312Z,2.67
2018-09-23T17:40:25.707Z,2.43
2018-09-23T17:42:54.910Z,2.30
2018-09-23T17:45:24.088Z,3.13
2018-09-23T17:47:53.285Z,3.13
2018-09-23T17:50:22.388Z,4.37
2018-09-23T17:52:51.723Z,3.07
2018-09-23T17:55:20.851Z,2.00
2018-09-23T17:57:49.888Z,2.87
2018-09-23T18:00:19.044Z,2.53
2018-09-23T18:02:48.243Z,1.90
2018-09-23T18:05:17.336Z,2.17
2018-09-23T18:07:46.614Z,2.13
2018-09-23T18:10:15.764Z,1.60
2018-09-23T18:12:45.319Z,2.03
2018-09-23T18:15:14.981Z,2.20
2018-09-23T18:17:44.128Z,1.60
2018-09-23T18:20:14.083Z,1.60
2018-09-23T18:22:43.444Z,1.83
2018-09-23T18:25:12.727Z,1.80
2018-09-23T18:27:41.996Z,1.87
2018-09-23T18:30:11.068Z,1.80
2018-09-23T18:32:40.254Z,2.20
2018-09-23T18:35:09.423Z,2.40
2018-09-23T18:37:38.709Z,1.50
2018-09-23T18:40:08.136Z,2.00
2018-09-23T18:42:37.721Z,1.80
2018-09-23T18:45:07.068Z,1.90
2018-09-23T18:47:36.191Z,2.50
2018-09-23T18:50:05.365Z,2.40
2018-09-23T18:52:34.448Z,1.87
2018-09-23T18:55:09.138Z,1.93
2018-09-23T18:57:38.216Z,2.07
2018-09-23T19:00:07.376Z,1.80
2018-09-23T19:02:36.559Z,1.60
2018-09-23T19:05:05.719Z,2.37
2018-09-23T19:07:34.905Z,2.83
2018-09-23T19:10:04.480Z,2.53
2018-09-23T19:12:33.750Z,2.40
2018-09-23T19:15:02.895Z,2.23
2018-09-23T19:17:35.166Z,2.37
2018-09-23T19:20:10.110Z,1.90
2018-09-23T19:22:44.580Z,1.70
2018-09-23T19:25:13.917Z,2.47
2018-09-23T19:27:43.073Z,1.97
2018-09-23T19:30:12.330Z,1.67
2018-09-23T19:32:41.680Z,1.80
2018-09-23T19:35:10.936Z,1.00
2018-09-23T19:37:40.005Z,1.73
2018-09-23T19:40:09.157Z,1.73
2018-09-23T19:42:38.499Z,1.50
2018-09-23T19:45:07.874Z,1.30
2018-09-23T19:47:37.165Z,1.27
2018-09-23T19:50:06.327Z,1.27
2018-09-23T19:52:35.551Z,1.80
2018-09-23T19:55:04.875Z,1.53
2018-09-23T19:57:34.110Z,1.40
2018-09-23T20:00:07.003Z,1.37
2018-09-23T20:02:36.402Z,1.30
2018-09-23T20:05:05.732Z,1.17
2018-09-23T20:07:34.996Z,0.93
2018-09-23T20:10:04.256Z,1.30
2018-09-23T20:12:33.548Z,1.30
2018-09-23T20:15:02.770Z,1.17
2018-09-23T20:17:32.036Z,1.20
2018-09-23T20:20:01.295Z,1.10
2018-09-23T20:22:30.482Z,1.40
2018-09-23T20:24:59.718Z,1.27
2018-09-23T20:27:28.898Z,1.63
2018-09-23T20:29:57.992Z,1.50
2018-09-23T20:32:27.163Z,1.53
2018-09-23T20:34:56.376Z,1.40
2018-09-23T20:37:25.436Z,1.03
2018-09-23T20:39:54.558Z,1.20
2018-09-23T20:42:27.285Z,1.30
2018-09-23T20:44:56.947Z,1.20
2018-09-23T20:47:26.074Z,1.47
2018-09-23T20:49:55.623Z,1.70
2018-09-23T20:52:24.845Z,0.93
2018-09-23T20:54:53.880Z,1.37
2018-09-23T20:57:23.192Z,1.40
2018-09-23T20:59:52.534Z,1.30
2018-09-23T21:02:21.748Z,1.80
2018-09-23T21:04:50.980Z,1.07
2018-09-23T21:07:20.055Z,1.20
2018-09-23T21:09:49.196Z,1.20
2018-09-23T21:12:18.900Z,1.33
2018-09-23T21:14:48.078Z,1.40
2018-09-23T21:17:17.203Z,1.03
2018-09-23T21:19:46.495Z,1.43
2018-09-23T21:22:15.502Z,1.37
2018-09-23T21:24:47.925Z,1.00
2018-09-23T21:27:17.450Z,1.33
2018-09-23T21:29:46.504Z,1.10
2018-09-23T21:32:16.240Z,1.50
2018-09-23T21:34:45.500Z,2.77
2018-09-23T21:37:14.777Z,1.40
2018-09-23T21:39:43.977Z,1.27
2018-09-23T21:42:13.209Z,1.27
2018-09-23T21:44:42.370Z,1.43
2018-09-23T21:47:11.554Z,1.20
2018-09-23T21:49:40.612Z,1.40
2018-09-23T21:52:09.943Z,1.40
2018-09-23T21:54:38.996Z,1.50
2018-09-23T21:57:08.301Z,1.30
2018-09-23T21:59:37.563Z,1.30
2018-09-23T22:02:06.947Z,1.20
2018-09-23T22:04:36.170Z,1.63
2018-09-23T22:07:05.304Z,1.20
2018-09-23T22:09:34.455Z,1.30
2018-09-23T22:12:04.089Z,1.40
2018-09-23T22:14:33.441Z,1.70
2018-09-23T22:17:02.502Z,1.10
2018-09-23T22:19:31.667Z,1.83
2018-09-23T22:22:00.847Z,1.23
2018-09-23T22:24:29.967Z,1.10
2018-09-23T22:27:00.134Z,1.40
2018-09-23T22:29:29.318Z,1.63
2018-09-23T22:31:58.583Z,0.97
2018-09-23T22:34:27.673Z,1.30
2018-09-23T22:36:56.865Z,1.10
2018-09-23T22:39:25.892Z,1.23
2018-09-23T22:41:55.023Z,1.30
2018-09-23T22:44:24.207Z,0.90
2018-09-23T22:46:53.297Z,1.00
2018-09-23T22:49:22.558Z,1.53
2018-09-23T22:51:51.938Z,1.10
2018-09-23T22:54:21.322Z,0.97
2018-09-23T22:56:50.839Z,1.47
2018-09-23T22:59:20.044Z,1.40
2018-09-23T23:01:49.216Z,1.37
2018-09-23T23:04:18.352Z,1.53
2018-09-23T23:06:47.558Z,1.37
2018-09-23T23:09:17.468Z,1.23
2018-09-23T23:11:46.674Z,0.97
2018-09-23T23:14:15.780Z,1.20
2018-09-23T23:16:44.845Z,1.00
2018-09-23T23:19:13.943Z,1.20
2018-09-23T23:21:43.868Z,1.27
2018-09-23T23:24:13.092Z,1.27
2018-09-23T23:26:42.196Z,1.07
2018-09-23T23:29:11.425Z,1.30
2018-09-23T23:31:40.504Z,1.60
2018-09-23T23:34:09.562Z,1.40
2018-09-23T23:36:38.698Z,1.33
2018-09-23T23:39:09.197Z,1.53
2018-09-23T23:41:38.784Z,1.40
2018-09-23T23:44:07.899Z,1.23
2018-09-23T23:46:37.591Z,1.63
2018-09-23T23:49:07.003Z,1.37
2018-09-23T23:51:37.353Z,1.20
2018-09-23T23:54:06.786Z,1.20
2018-09-23T23:56:36.195Z,1.00
2018-09-23T23:59:05.384Z,1.43
